Lorenzo, Texas
Current Conditions -  °F | °C
As of 7:53 AM on Sunday 25 Jan 2015 (Local Time) from KLBB Reporting Station
Few Clouds Few Clouds  
Wind Chill: 26°   Ceiling: Unl
Heat Index: 32°   Visibility: 10mi
Dew Point: 28°   Wind: 7mph
Humidity: 85%   Direction: 310°NW
Pressure: 30.17"   Gusts: NA
Location:  33.67°N, 101.54°W
Report Text: KLBB 251353Z 31006KT 10SM FEW250 00/M02 A3017 RMK AO2 SLP218 T00001022
Loading
Personal Weather Stations






























Interactive Weather Map New forecast layout! Learn more

10-Day Weather Forecast

Advertisements
Track Severe Weather on mobile